createdAt,value
2018-07-25T00:02:01.213Z,3.6
2018-07-25T00:05:01.177Z,3.6
2018-07-25T00:08:01.037Z,3.5
2018-07-25T00:11:01.354Z,3.5
2018-07-25T00:14:01.238Z,4
2018-07-25T00:17:01.224Z,3.5
2018-07-25T00:20:01.139Z,3.3
2018-07-25T00:23:01.266Z,3.3
2018-07-25T00:26:01.309Z,3.3
2018-07-25T00:29:01.350Z,3.5
2018-07-25T00:32:01.396Z,3.4
2018-07-25T00:35:01.286Z,3.5
2018-07-25T00:38:01.239Z,3.7
2018-07-25T00:41:01.293Z,3.6
2018-07-25T00:44:01.188Z,3.6
2018-07-25T00:47:01.174Z,3.6
2018-07-25T00:50:01.010Z,3.5
2018-07-25T00:53:01.430Z,3.3
2018-07-25T00:56:01.345Z,3.4
2018-07-25T00:59:01.266Z,3.8
2018-07-25T01:02:01.072Z,3.4
2018-07-25T01:05:01.229Z,3.4
2018-07-25T01:08:01.106Z,3.4
2018-07-25T01:11:01.194Z,3.5
2018-07-25T01:14:01.186Z,3.6
2018-07-25T01:17:01.112Z,3.4
2018-07-25T01:20:01.148Z,3.5
2018-07-25T01:23:01.387Z,3.5
2018-07-25T01:26:01.150Z,3.5
2018-07-25T01:29:01.250Z,3.5
2018-07-25T01:32:01.366Z,3.5
2018-07-25T01:35:01.172Z,3.5
2018-07-25T01:38:01.317Z,3.5
2018-07-25T01:41:01.422Z,3.3
2018-07-25T01:44:01.232Z,3.4
2018-07-25T01:47:01.537Z,3.4
2018-07-25T01:50:01.493Z,3.5
2018-07-25T01:53:01.183Z,3.6
2018-07-25T01:56:01.247Z,3.6
2018-07-25T01:59:01.245Z,3.5
2018-07-25T02:02:01.354Z,4.6
2018-07-25T02:05:01.385Z,3.6
2018-07-25T02:08:01.509Z,3.5
2018-07-25T02:11:01.256Z,3.6
2018-07-25T02:14:01.343Z,3.5
2018-07-25T02:17:01.283Z,3.3
2018-07-25T02:20:01.398Z,3.4
2018-07-25T02:23:01.326Z,3.7
2018-07-25T02:26:01.051Z,3.5
2018-07-25T02:29:01.228Z,3.4
2018-07-25T02:32:01.148Z,3.4
2018-07-25T02:35:01.321Z,3.5
2018-07-25T02:38:01.373Z,3.6
2018-07-25T02:41:01.199Z,3.4
2018-07-25T02:44:01.218Z,3.4
2018-07-25T02:47:01.574Z,3.5
2018-07-25T02:50:01.236Z,3.6
2018-07-25T02:53:01.023Z,3.6
2018-07-25T02:56:01.112Z,3.7
2018-07-25T02:59:01.335Z,3.6
2018-07-25T03:02:01.855Z,3.5
2018-07-25T03:05:01.232Z,3.7
2018-07-25T03:08:01.516Z,3.5
2018-07-25T03:11:01.303Z,3.7
2018-07-25T03:14:01.271Z,3.6
2018-07-25T03:17:01.309Z,3.5
2018-07-25T03:20:01.604Z,3.8
2018-07-25T03:23:01.155Z,3.5
2018-07-25T03:26:01.094Z,3.7
2018-07-25T03:29:01.612Z,3.5
2018-07-25T03:32:01.344Z,3.4
2018-07-25T03:35:01.171Z,3.8
2018-07-25T03:38:01.700Z,3.8
2018-07-25T03:41:01.041Z,3.6
2018-07-25T03:44:01.134Z,3.7
2018-07-25T03:47:01.009Z,3.8
2018-07-25T03:50:01.151Z,3.7
2018-07-25T03:53:01.171Z,3.7
2018-07-25T03:56:01.047Z,3.8
2018-07-25T03:59:01.247Z,3.7
2018-07-25T04:02:02.247Z,3.9
2018-07-25T04:05:00.991Z,3.4
2018-07-25T04:08:01.219Z,3.7
2018-07-25T04:11:01.099Z,3.4
2018-07-25T04:14:01.092Z,3.6
2018-07-25T04:17:01.255Z,3.8
2018-07-25T04:20:01.207Z,3.8
2018-07-25T04:23:01.085Z,3.7
2018-07-25T04:26:01.068Z,4
2018-07-25T04:29:01.149Z,3.5
2018-07-25T04:32:01.031Z,3.8
2018-07-25T04:35:01.095Z,3.7
2018-07-25T04:38:01.283Z,3.7
2018-07-25T04:41:01.012Z,3.8
2018-07-25T04:44:01.034Z,3.9
2018-07-25T04:47:01.289Z,3.8
2018-07-25T04:50:01.047Z,3.7
2018-07-25T04:53:01.281Z,3.6
2018-07-25T04:56:01.740Z,3.5
2018-07-25T04:59:00.981Z,3.8
2018-07-25T05:02:01.190Z,3.7
2018-07-25T05:05:00.993Z,3.8
2018-07-25T05:08:01.014Z,3.6
2018-07-25T05:11:01.159Z,3.6
2018-07-25T05:14:01.180Z,3.7
2018-07-25T05:17:01.164Z,3.3
2018-07-25T05:20:01.201Z,3.8
2018-07-25T05:23:01.073Z,3.7
2018-07-25T05:26:00.960Z,3.7
2018-07-25T05:29:01.279Z,3.8
2018-07-25T05:32:00.990Z,3.5
2018-07-25T05:35:00.999Z,3.6
2018-07-25T05:38:01.822Z,3.7
2018-07-25T05:41:01.174Z,3.9
2018-07-25T05:44:01.009Z,4.2
2018-07-25T05:47:01.110Z,4.1
2018-07-25T05:50:01.155Z,4
2018-07-25T05:53:01.044Z,4
2018-07-25T05:56:01.143Z,3.9
2018-07-25T05:59:01.021Z,4
2018-07-25T06:02:01.026Z,3.9
2018-07-25T06:05:01.151Z,3.9
2018-07-25T06:08:01.025Z,3.9
2018-07-25T06:11:01.189Z,4
2018-07-25T06:14:01.057Z,4
2018-07-25T06:17:01.042Z,4
2018-07-25T06:20:00.943Z,3.9
2018-07-25T06:23:00.983Z,3.9
2018-07-25T06:26:02.219Z,4.1
2018-07-25T06:29:00.952Z,4
2018-07-25T06:32:00.993Z,3.8
2018-07-25T06:35:01.147Z,3.7
2018-07-25T06:38:02.545Z,3.8
2018-07-25T06:41:00.968Z,4
2018-07-25T06:44:01.059Z,4.1
2018-07-25T06:47:01.446Z,3.9
2018-07-25T06:50:01.001Z,3.9
2018-07-25T06:53:00.993Z,4
2018-07-25T06:56:01.179Z,4.1
2018-07-25T06:59:01.099Z,4
2018-07-25T07:02:00.989Z,4
2018-07-25T07:05:01.184Z,4.1
2018-07-25T07:08:01.075Z,4
2018-07-25T07:11:01.272Z,4
2018-07-25T07:14:01.326Z,4.2
2018-07-25T07:17:00.909Z,3.7
2018-07-25T07:20:01.045Z,3.8
2018-07-25T07:23:01.240Z,4.1
2018-07-25T07:26:01.145Z,3.9
2018-07-25T07:29:01.038Z,3.9
2018-07-25T07:32:01.058Z,3.9
2018-07-25T07:35:01.698Z,3.6
2018-07-25T07:38:01.018Z,3.9
2018-07-25T07:41:01.072Z,4
2018-07-25T07:44:12.367Z,3.9
2018-07-25T07:47:01.182Z,3.8
2018-07-25T07:50:01.228Z,3.8
2018-07-25T07:53:01.081Z,3.8
2018-07-25T07:56:01.063Z,4
2018-07-25T07:59:01.178Z,3.7
2018-07-25T08:02:01.062Z,5.4
2018-07-25T08:05:02.287Z,3.8
2018-07-25T08:08:01.115Z,3.8
2018-07-25T08:11:01.194Z,3.9
2018-07-25T08:14:01.085Z,4.1
2018-07-25T08:17:01.040Z,3.9
2018-07-25T08:20:02.081Z,4.3
2018-07-25T08:23:00.998Z,4.5
2018-07-25T08:26:01.128Z,7.1
2018-07-25T08:29:01.151Z,6.8
2018-07-25T08:32:01.247Z,6.5
2018-07-25T08:35:01.118Z,4.4
2018-07-25T08:38:01.073Z,4.9
2018-07-25T08:41:01.182Z,4.4
2018-07-25T09:43:28.003Z,6.2
2018-07-25T09:46:28.895Z,4.8
2018-07-25T09:49:27.664Z,4.7
2018-07-25T09:55:27.575Z,5.1
2018-07-25T10:01:27.357Z,5.4
2018-07-25T10:04:27.384Z,4.5
2018-07-25T10:07:28.682Z,4.6
2018-07-25T10:13:27.626Z,5.6
2018-07-25T10:16:27.552Z,5.4
2018-07-25T10:19:27.491Z,4.7
2018-07-25T10:22:27.786Z,4.6
2018-07-25T10:25:27.536Z,5.7
2018-07-25T10:31:27.520Z,5.1
2018-07-25T10:34:27.543Z,4.8
2018-07-25T10:37:27.628Z,4.8
2018-07-25T10:43:27.713Z,4.6
2018-07-25T10:46:27.440Z,4.7
2018-07-25T10:49:27.507Z,4.9
2018-07-25T10:55:27.559Z,4.9
2018-07-25T10:58:27.611Z,4.7
2018-07-25T11:01:27.819Z,4.8
2018-07-25T11:04:27.846Z,4.9
2018-07-25T11:10:27.540Z,4.9
2018-07-25T11:16:29.688Z,5
2018-07-25T11:19:27.892Z,4.8
2018-07-25T11:22:28.559Z,4.8
2018-07-25T11:28:27.386Z,5
2018-07-25T11:31:27.361Z,5.1
2018-07-25T11:34:27.465Z,5.1
2018-07-25T11:37:27.310Z,5.3
2018-07-25T11:43:27.347Z,5.3
2018-07-25T11:46:27.336Z,5.2
2018-07-25T11:49:27.313Z,5.3
2018-07-25T11:52:27.334Z,5.3
2018-07-25T11:55:28.816Z,5.5
2018-07-25T11:58:27.388Z,5.1
2018-07-25T12:04:27.339Z,5.7
2018-07-25T12:10:27.464Z,5.4
2018-07-25T12:13:27.653Z,5.2
2018-07-25T12:16:27.437Z,5.4
2018-07-25T12:19:27.446Z,6.2
2018-07-25T12:25:27.458Z,5.3
2018-07-25T12:31:30.780Z,5.5
2018-07-25T12:37:27.544Z,5.3
2018-07-25T12:40:27.400Z,5.4
2018-07-25T12:43:27.453Z,5.3
2018-07-25T12:46:31.718Z,5.3
2018-07-25T12:52:27.491Z,8.5
2018-07-25T12:55:27.328Z,7.9
2018-07-25T12:58:27.459Z,8.4
2018-07-25T13:01:27.482Z,10.4
2018-07-25T13:07:27.494Z,12.8
2018-07-25T13:10:28.456Z,9.2
2018-07-25T13:13:27.746Z,6.6
2018-07-25T13:19:27.527Z,8
2018-07-25T13:22:27.651Z,6.5
2018-07-25T13:25:27.620Z,9.6
2018-07-25T13:28:29.295Z,7.7
2018-07-25T13:34:27.714Z,6.6
2018-07-25T13:40:27.482Z,6.1
2018-07-25T13:43:27.459Z,6
2018-07-25T13:49:27.464Z,5.3
2018-07-25T13:55:27.472Z,7.4
2018-07-25T13:58:27.569Z,5.7
2018-07-25T14:01:27.279Z,5.6
2018-07-25T14:04:27.550Z,6.7
2018-07-25T14:10:27.410Z,7
2018-07-25T14:13:27.455Z,6.2
2018-07-25T14:16:27.470Z,5.2
2018-07-25T14:19:27.428Z,5.1
2018-07-25T14:22:31.506Z,5.7
2018-07-25T14:25:27.481Z,6.6
2018-07-25T14:28:27.561Z,5.6
2018-07-25T14:31:27.498Z,5.8
2018-07-25T14:34:27.592Z,5.3
2018-07-25T14:37:31.858Z,5.6
2018-07-25T14:43:27.682Z,6.2
2018-07-25T14:46:27.397Z,5
2018-07-25T14:49:27.489Z,5.3
2018-07-25T14:55:27.487Z,5.2
2018-07-25T14:58:27.339Z,5
2018-07-25T15:04:27.586Z,5.2
2018-07-25T15:07:27.418Z,5.7
2018-07-25T15:10:27.409Z,5.2
2018-07-25T15:16:27.568Z,5
2018-07-25T15:22:27.553Z,5.5
2018-07-25T15:25:27.424Z,5.2
2018-07-25T15:28:32.045Z,5.3
2018-07-25T15:34:27.675Z,4.9
2018-07-25T15:37:27.695Z,4.8
2018-07-25T15:40:27.546Z,5
2018-07-25T15:43:27.544Z,4.8
2018-07-25T15:46:27.472Z,5
2018-07-25T15:49:32.355Z,5.2
2018-07-25T15:55:27.547Z,4.9
2018-07-25T16:01:27.476Z,5
2018-07-25T16:04:31.872Z,4.8
2018-07-25T16:10:27.388Z,4.8
2018-07-25T16:13:27.477Z,4.6
2018-07-25T16:16:27.357Z,4.6
2018-07-25T16:22:27.420Z,4.8
2018-07-25T16:25:27.480Z,4.8
2018-07-25T16:28:27.426Z,5.2
2018-07-25T16:31:27.572Z,4.6
2018-07-25T16:37:27.415Z,4.8
2018-07-25T16:43:27.426Z,4.4
2018-07-25T16:46:27.324Z,9.1
2018-07-25T16:49:31.565Z,9.6
2018-07-25T16:52:27.439Z,8.5
2018-07-25T17:01:27.405Z,5.9
2018-07-25T17:07:27.363Z,9.9
2018-07-25T17:10:27.532Z,8.4
2018-07-25T17:13:27.486Z,9.7
2018-07-25T17:16:27.599Z,12.9
2018-07-25T17:22:28.788Z,9.4
2018-07-25T17:25:27.837Z,13
2018-07-25T17:28:27.819Z,13.6
2018-07-25T17:31:27.469Z,13.9
2018-07-25T17:37:27.212Z,8.9
2018-07-25T17:40:31.716Z,10.2
2018-07-25T17:46:27.384Z,8.7
2018-07-25T17:52:27.513Z,6.2
2018-07-25T17:55:31.453Z,7.2
2018-07-25T17:58:27.404Z,5.4
2018-07-25T18:01:27.367Z,8.8
2018-07-25T18:07:27.364Z,8.6
2018-07-25T18:10:27.252Z,6
2018-07-25T18:13:27.189Z,5.7
2018-07-25T18:16:27.340Z,5.6
2018-07-25T18:22:27.375Z,5.6
2018-07-25T18:25:27.809Z,5.5
2018-07-25T18:28:27.514Z,6.1
2018-07-25T18:31:27.427Z,6
2018-07-25T18:37:28.089Z,5.7
2018-07-25T18:40:27.494Z,6.1
2018-07-25T18:43:27.300Z,6
2018-07-25T18:49:27.479Z,6.6
2018-07-25T18:55:27.245Z,7.1
2018-07-25T19:01:27.201Z,4.9
2018-07-25T19:04:27.156Z,6.7
2018-07-25T19:07:28.478Z,5.5
2018-07-25T19:10:27.134Z,6.7
2018-07-25T19:16:27.165Z,8.1
2018-07-25T19:19:27.492Z,5.9
2018-07-25T19:22:27.240Z,6.2
2018-07-25T19:25:27.372Z,5.8
2018-07-25T19:28:27.457Z,7.3
2018-07-25T19:34:27.338Z,8.6
2018-07-25T19:37:27.453Z,6.4
2018-07-25T19:40:27.247Z,7.7
2018-07-25T19:43:28.705Z,6.8
2018-07-25T19:49:28.096Z,7.2
2018-07-25T19:52:27.439Z,8.2
2018-07-25T19:55:27.498Z,6.7
2018-07-25T19:58:27.448Z,5.3
2018-07-25T20:04:27.425Z,6.3
2018-07-25T20:10:27.661Z,5.6
2018-07-25T20:13:27.377Z,4.5
2018-07-25T20:19:27.351Z,4.6
2018-07-25T20:22:28.300Z,4.4
2018-07-25T20:25:27.476Z,4.5
2018-07-25T20:31:28.491Z,4.4
2018-07-25T20:34:27.394Z,5
2018-07-25T20:40:27.228Z,4.4
2018-07-25T20:43:27.270Z,4.2
2018-07-25T20:46:27.207Z,4.7
2018-07-25T20:49:27.270Z,4.9
2018-07-25T20:55:27.069Z,5.1
2018-07-25T20:58:27.234Z,4.7
2018-07-25T21:01:27.267Z,4.9
2018-07-25T21:04:27.330Z,4.4
2018-07-25T21:10:27.976Z,4.5
2018-07-25T21:13:27.517Z,4.4
2018-07-25T21:16:27.363Z,4.2
2018-07-25T21:22:27.389Z,4.3
2018-07-25T21:25:27.327Z,4.6
2018-07-25T21:28:27.304Z,3.8
2018-07-25T21:31:27.213Z,4.2
2018-07-25T21:37:27.306Z,4
2018-07-25T21:40:27.539Z,4.4
2018-07-25T21:43:27.411Z,4.6
2018-07-25T21:46:27.548Z,4.9
2018-07-25T21:49:27.194Z,4.6
2018-07-25T21:52:27.429Z,4.3
2018-07-25T21:58:27.369Z,4.2
2018-07-25T22:01:27.321Z,4.4
2018-07-25T22:04:27.406Z,4.1
2018-07-25T22:07:27.281Z,3.9
2018-07-25T22:13:27.412Z,4
2018-07-25T22:16:27.340Z,4.3
2018-07-25T22:19:27.295Z,4.3
2018-07-25T22:22:27.438Z,4.1
2018-07-25T22:28:27.233Z,4.1
2018-07-25T22:34:27.348Z,4.1
2018-07-25T22:37:27.188Z,3.8
2018-07-25T22:40:27.296Z,4.6
2018-07-25T22:46:27.412Z,4.5
2018-07-25T22:52:27.233Z,4.3
2018-07-25T22:55:28.084Z,3.8
2018-07-25T23:01:27.304Z,4.1
2018-07-25T23:07:27.145Z,4
2018-07-25T23:10:27.345Z,4
2018-07-25T23:13:27.172Z,4.1
2018-07-25T23:16:27.198Z,3.8
2018-07-25T23:22:27.364Z,4
2018-07-25T23:25:27.220Z,3.9
2018-07-25T23:31:27.219Z,3.9
2018-07-25T23:34:27.251Z,4.3
2018-07-25T23:37:27.143Z,3.9
2018-07-25T23:43:27.148Z,4
2018-07-25T23:46:27.259Z,3.9
2018-07-25T23:49:27.492Z,3.7
2018-07-25T23:52:27.359Z,3.7
2018-07-25T23:55:27.125Z,3.8
2018-07-25T23:58:27.285Z,4
